Time;durP1;ratioP1;P1;durP2;ratioP2;P2;SDS_P1;SDS_P2;PMS_P1;PMS_P2;Temp;Humidity;BMP_temperature;BMP_pressure;BME280_temperature;BME280_humidity;BME280_pressure;Samples;Min_cycle;Max_cycle;Signal;HPM_P1;HPM_P2
2023/01/29 00:01:09;;;;;;;15.70;11.18;;;19.90;99.90;;;;;;5051385;28;20582;-56
2023/01/29 00:03:34;;;;;;;16.52;10.93;;;19.90;99.90;;;;;;5051581;28;20117;-57
2023/01/29 00:06:05;;;;;;;15.23;10.73;;;19.90;99.90;;;;;;5051528;28;20104;-58
2023/01/29 00:08:36;;;;;;;15.90;11.32;;;19.90;99.90;;;;;;5051533;28;20040;-56
2023/01/29 00:11:03;;;;;;;14.15;10.57;;;19.90;99.90;;;;;;5051466;28;20017;-57
2023/01/29 00:13:29;;;;;;;15.48;10.82;;;19.90;99.90;;;;;;5051549;28;20025;-55
2023/01/29 00:15:56;;;;;;;14.50;10.32;;;19.90;99.90;;;;;;5050288;28;20036;-58
2023/01/29 00:18:23;;;;;;;15.32;10.45;;;19.80;99.90;;;;;;5055221;28;20496;-56
2023/01/29 00:20:49;;;;;;;15.85;10.98;;;19.80;99.90;;;;;;5055371;28;20036;-56
2023/01/29 00:23:15;;;;;;;14.15;10.80;;;19.80;99.90;;;;;;5055099;28;20025;-56
2023/01/29 00:25:42;;;;;;;14.18;10.05;;;19.80;99.90;;;;;;5055044;28;20043;-57
2023/01/29 00:28:08;;;;;;;16.38;10.90;;;19.80;99.90;;;;;;5054869;28;20033;-56
2023/01/29 00:30:35;;;;;;;14.95;10.23;;;19.80;99.90;;;;;;5054894;28;20071;-56
2023/01/29 00:33:01;;;;;;;14.57;10.25;;;19.70;99.90;;;;;;5054808;28;20485;-58
2023/01/29 00:35:27;;;;;;;14.77;10.23;;;19.80;99.90;;;;;;5054736;28;20158;-56
2023/01/29 00:37:54;;;;;;;16.70;11.50;;;19.70;99.90;;;;;;5055078;28;20112;-58
2023/01/29 00:40:21;;;;;;;14.80;10.40;;;19.70;99.90;;;;;;5054899;28;20024;-57
2023/01/29 00:45:32;;;;;;;15.30;10.85;;;19.70;99.90;;;;;;5054655;28;20063;-56
2023/01/29 00:47:58;;;;;;;14.35;10.13;;;19.70;99.90;;;;;;5054519;28;20064;-58
2023/01/29 00:50:24;;;;;;;14.65;10.55;;;19.70;99.90;;;;;;5054676;28;20025;-57
2023/01/29 00:52:51;;;;;;;15.63;10.77;;;19.70;99.90;;;;;;5054690;28;20036;-57
2023/01/29 00:55:17;;;;;;;15.63;10.65;;;19.70;99.90;;;;;;5054585;28;20098;-57
2023/01/29 00:57:43;;;;;;;15.80;11.18;;;19.60;99.90;;;;;;5054282;28;20083;-57
2023/01/29 01:00:13;;;;;;;15.57;10.80;;;19.60;99.90;;;;;;5054736;28;20049;-55
2023/01/29 01:05:23;;;;;;;17.17;10.95;;;19.60;99.90;;;;;;5054477;28;20159;-55
2023/01/29 01:07:55;;;;;;;17.20;11.50;;;19.60;99.90;;;;;;5054042;28;20033;-56
2023/01/29 01:10:24;;;;;;;14.15;10.10;;;19.60;99.90;;;;;;5054276;28;20025;-57
2023/01/29 01:12:57;;;;;;;14.30;9.77;;;19.60;99.90;;;;;;5054242;28;20478;-56
2023/01/29 01:15:25;;;;;;;14.85;10.48;;;19.60;99.90;;;;;;5054475;28;20092;-56
2023/01/29 01:17:53;;;;;;;14.77;10.63;;;19.50;99.90;;;;;;5054204;28;20027;-57
2023/01/29 01:20:19;;;;;;;14.45;10.77;;;19.50;99.90;;;;;;5052946;28;20021;-58
2023/01/29 01:22:45;;;;;;;16.75;11.57;;;19.50;99.90;;;;;;5053908;28;20033;-58
2023/01/29 01:25:10;;;;;;;17.83;11.73;;;19.50;99.90;;;;;;5054202;28;20021;-57
2023/01/29 01:27:39;;;;;;;15.00;10.10;;;19.50;99.90;;;;;;5053892;28;20516;-57
2023/01/29 01:30:15;;;;;;;15.93;10.00;;;19.50;99.90;;;;;;5053420;28;20025;-56
2023/01/29 01:32:42;;;;;;;14.93;10.85;;;19.50;99.90;;;;;;5053865;28;20025;-57
2023/01/29 01:35:09;;;;;;;15.85;11.63;;;19.50;99.90;;;;;;5053613;28;20517;-58
2023/01/29 01:37:38;;;;;;;14.82;10.18;;;19.40;99.90;;;;;;5053750;28;20028;-58
2023/01/29 01:40:11;;;;;;;15.38;10.88;;;19.40;99.90;;;;;;5053697;28;20446;-58
2023/01/29 01:42:40;;;;;;;15.52;10.48;;;19.40;99.90;;;;;;5052472;28;20048;-58
2023/01/29 01:45:16;;;;;;;16.30;11.02;;;19.40;99.90;;;;;;5053529;28;20048;-57
2023/01/29 01:47:50;;;;;;;14.65;10.13;;;19.40;99.90;;;;;;5053453;28;20090;-57
2023/01/29 01:50:25;;;;;;;13.98;9.43;;;19.40;99.90;;;;;;5053411;28;20025;-57
2023/01/29 01:52:57;;;;;;;15.10;10.27;;;19.40;99.90;;;;;;5052127;28;20370;-57
2023/01/29 01:55:26;;;;;;;16.38;10.18;;;19.30;99.90;;;;;;5053459;28;20086;-58
2023/01/29 01:58:03;;;;;;;16.02;11.00;;;19.30;99.90;;;;;;5053099;28;20029;-57
2023/01/29 02:00:29;;;;;;;15.45;10.07;;;19.30;99.90;;;;;;5053637;28;20093;-56
2023/01/29 02:11:23;;;;;;;13.43;9.52;;;19.20;99.90;;;;;;5052886;28;20036;-57
2023/01/29 02:13:52;;;;;;;13.77;9.95;;;19.20;99.90;;;;;;5052936;28;20021;-56
2023/01/29 02:16:19;;;;;;;14.77;10.00;;;19.20;99.90;;;;;;5052956;28;20355;-56
2023/01/29 02:18:45;;;;;;;15.02;10.27;;;19.20;99.90;;;;;;5052891;28;20025;-59
2023/01/29 02:21:23;;;;;;;14.85;10.23;;;19.20;99.90;;;;;;5052901;28;20025;-55
2023/01/29 02:23:55;;;;;;;14.98;9.30;;;19.20;99.90;;;;;;5052704;28;20048;-55
2023/01/29 02:26:56;;;;;;;14.10;9.73;;;19.10;99.90;;;;;;5052608;28;20020;-54
2023/01/29 02:29:46;;;;;;;14.45;9.65;;;19.20;99.90;;;;;;5036682;28;20132;-56
2023/01/29 02:32:17;;;;;;;13.48;9.00;;;19.10;99.90;;;;;;5051498;28;20036;-55
2023/01/29 02:38:09;;;;;;;14.13;9.45;;;19.10;99.90;;;;;;5052599;28;20063;-54
2023/01/29 02:40:37;;;;;;;14.82;9.48;;;19.10;99.90;;;;;;5028636;28;20029;-55
2023/01/29 02:43:06;;;;;;;13.75;8.90;;;19.10;99.90;;;;;;5052498;28;20029;-56
2023/01/29 02:45:36;;;;;;;13.95;9.35;;;19.10;99.90;;;;;;5052293;28;20109;-57
2023/01/29 02:48:02;;;;;;;14.40;9.55;;;19.00;99.90;;;;;;5051031;28;20039;-58
2023/01/29 02:50:43;;;;;;;13.18;10.05;;;19.00;99.90;;;;;;5051284;28;20100;-56
2023/01/29 02:53:17;;;;;;;14.30;10.13;;;19.00;99.90;;;;;;5052522;28;20111;-57
2023/01/29 02:56:02;;;;;;;14.20;9.10;;;19.00;99.90;;;;;;5052402;28;20025;-57
2023/01/29 02:58:59;;;;;;;14.77;9.90;;;19.00;99.90;;;;;;5051082;28;20025;-55
2023/01/29 03:01:38;;;;;;;13.82;8.90;;;19.00;99.90;;;;;;5038086;28;20129;-56
2023/01/29 03:04:10;;;;;;;12.38;9.50;;;19.00;99.90;;;;;;5052266;28;20029;-55
2023/01/29 03:06:48;;;;;;;14.15;9.43;;;19.00;99.90;;;;;;5052087;28;20075;-57
2023/01/29 03:09:21;;;;;;;;;;;19.00;99.90;;;;;;5052644;28;20377;-59
2023/01/29 03:11:53;;;;;;;13.85;9.73;;;19.00;99.90;;;;;;5052205;28;19911;-59
2023/01/29 03:15:10;;;;;;;13.82;10.38;;;18.90;99.90;;;;;;5050752;28;20032;-57
2023/01/29 03:17:21;;;;;;;13.27;9.38;;;18.90;99.90;;;;;;5051921;28;20428;-57
2023/01/29 03:19:49;;;;;;;14.10;10.02;;;18.90;99.90;;;;;;5052164;28;20117;-57
2023/01/29 03:22:17;;;;;;;15.73;9.90;;;18.90;99.90;;;;;;5052104;28;20049;-56
2023/01/29 03:33:31;;;;;;;14.77;10.45;;;18.80;99.90;;;;;;5051124;28;20036;-56
2023/01/29 03:36:21;;;;;;;15.32;9.82;;;18.80;99.90;;;;;;5051881;28;20013;-57
2023/01/29 03:38:47;;;;;;;14.85;9.77;;;18.80;99.90;;;;;;5051866;28;20025;-56
2023/01/29 03:41:25;;;;;;;17.05;10.82;;;18.80;99.90;;;;;;5051966;28;20025;-58
2023/01/29 03:44:06;;;;;;;15.25;10.25;;;18.80;99.90;;;;;;5051951;28;20029;-58
2023/01/29 03:46:44;;;;;;;14.30;10.50;;;18.80;99.90;;;;;;5050638;28;20097;-59
2023/01/29 03:49:22;;;;;;;18.05;10.73;;;18.80;99.90;;;;;;5051865;28;20052;-59
2023/01/29 03:52:07;;;;;;;17.92;11.40;;;18.70;99.90;;;;;;5052916;28;20072;-58
2023/01/29 03:54:51;;;;;;;18.52;12.23;;;18.70;99.90;;;;;;5055882;28;20377;-57
2023/01/29 03:57:38;;;;;;;18.92;12.15;;;18.70;99.90;;;;;;5054368;28;20083;-56
2023/01/29 04:00:30;;;;;;;17.38;11.48;;;18.70;99.90;;;;;;5056149;28;20033;-57
2023/01/29 04:03:07;;;;;;;15.52;10.48;;;18.70;99.90;;;;;;5055526;28;20041;-58
2023/01/29 04:05:42;;;;;;;17.60;11.35;;;18.70;99.90;;;;;;5055689;28;20059;-57
2023/01/29 04:08:13;;;;;;;18.63;11.90;;;18.70;99.90;;;;;;5055257;28;20039;-57
2023/01/29 04:10:42;;;;;;;19.60;11.48;;;18.70;99.90;;;;;;5055289;28;20025;-57
2023/01/29 04:13:12;;;;;;;17.73;12.27;;;18.70;99.90;;;;;;5055185;28;20029;-56
2023/01/29 04:15:48;;;;;;;19.98;11.98;;;18.60;99.90;;;;;;5055422;28;20025;-56
2023/01/29 04:18:14;;;;;;;19.20;11.75;;;18.60;99.90;;;;;;5055433;28;20389;-55
2023/01/29 04:20:40;;;;;;;14.95;10.10;;;18.60;99.90;;;;;;5055101;28;20031;-54
2023/01/29 04:23:17;;;;;;;20.20;11.55;;;18.60;99.90;;;;;;5055061;28;20021;-52
2023/01/29 04:25:51;;;;;;;21.92;12.38;;;18.60;99.90;;;;;;5054932;28;20025;-51
2023/01/29 04:28:35;;;;;;;17.52;11.20;;;18.60;99.90;;;;;;5054917;28;20032;-53
2023/01/29 04:31:07;;;;;;;16.77;11.45;;;18.50;99.90;;;;;;5054999;28;20469;-53
2023/01/29 04:33:37;;;;;;;16.45;10.73;;;18.60;99.90;;;;;;5055205;28;20087;-55
2023/01/29 04:36:29;;;;;;;15.55;10.52;;;18.60;99.90;;;;;;5055412;28;20021;-54
2023/01/29 04:39:11;;;;;;;17.98;11.55;;;18.50;99.90;;;;;;5052741;28;20200;-54
2023/01/29 04:41:43;;;;;;;17.90;10.77;;;18.50;99.90;;;;;;5055004;28;20020;-55
2023/01/29 04:44:27;;;;;;;15.35;10.25;;;18.50;99.90;;;;;;5054760;28;20028;-54
2023/01/29 04:47:15;;;;;;;14.85;10.10;;;18.50;99.90;;;;;;5054537;28;20087;-55
2023/01/29 04:50:06;;;;;;;14.80;9.70;;;18.50;99.90;;;;;;5054610;28;20032;-54
2023/01/29 04:52:35;;;;;;;16.30;10.30;;;18.40;99.90;;;;;;5054746;28;20025;-55
2023/01/29 04:55:18;;;;;;;15.23;10.00;;;18.40;99.90;;;;;;5054502;28;20029;-54
2023/01/29 04:58:27;;;;;;;16.20;9.82;;;18.50;99.90;;;;;;5054633;28;20025;-55
2023/01/29 05:00:54;;;;;;;13.55;9.90;;;18.40;99.90;;;;;;5053581;22;20049;-51
2023/01/29 05:03:23;;;;;;;13.93;9.30;;;18.40;99.90;;;;;;5053358;28;20404;-51
2023/01/29 05:05:50;;;;;;;14.13;9.80;;;18.40;99.90;;;;;;5054639;28;20025;-51
2023/01/29 05:08:19;;;;;;;13.45;9.40;;;18.40;99.90;;;;;;5054242;28;20036;-51
2023/01/29 05:10:48;;;;;;;16.10;10.70;;;18.40;99.90;;;;;;5054364;28;20047;-51
2023/01/29 05:13:14;;;;;;;14.23;9.77;;;18.40;99.90;;;;;;5054336;28;20025;-51
2023/01/29 05:15:58;;;;;;;14.38;8.77;;;18.40;99.90;;;;;;5054246;28;20024;-51
2023/01/29 05:18:24;;;;;;;13.52;9.48;;;18.40;99.90;;;;;;5054251;28;20017;-52
2023/01/29 05:20:51;;;;;;;13.75;9.07;;;18.40;99.90;;;;;;5054292;28;20039;-51
2023/01/29 05:23:19;;;;;;;16.00;9.30;;;18.30;99.90;;;;;;5054153;28;20373;-51
2023/01/29 05:25:46;;;;;;;15.18;9.55;;;18.30;99.90;;;;;;5052755;28;20033;-51
2023/01/29 05:28:15;;;;;;;14.48;9.35;;;18.30;99.90;;;;;;5052574;28;20389;-51
2023/01/29 05:30:43;;;;;;;13.45;9.07;;;18.30;99.90;;;;;;5054051;28;20041;-50
2023/01/29 05:33:21;;;;;;;14.20;8.90;;;18.40;99.90;;;;;;5054036;28;20524;-51
2023/01/29 05:35:47;;;;;;;13.23;9.20;;;18.30;99.90;;;;;;5053897;28;20028;-52
2023/01/29 05:38:14;;;;;;;13.05;8.85;;;18.40;99.90;;;;;;5052587;28;20388;-52
2023/01/29 05:40:41;;;;;;;12.80;9.35;;;18.30;99.90;;;;;;5052506;28;20029;-52
2023/01/29 05:43:18;;;;;;;13.40;8.00;;;18.30;99.90;;;;;;5054039;28;20040;-52
2023/01/29 05:46:10;;;;;;;;;;;18.30;99.90;;;;;;5052829;28;20025;-51
2023/01/29 05:48:36;;;;;;;13.40;8.43;;;18.30;99.90;;;;;;5051653;28;19913;-52
2023/01/29 05:51:03;;;;;;;11.27;7.90;;;18.30;99.90;;;;;;5053628;28;20021;-52
2023/01/29 05:53:30;;;;;;;11.95;8.23;;;18.20;99.90;;;;;;5053569;28;20032;-52
2023/01/29 05:55:59;;;;;;;12.23;8.07;;;18.20;99.90;;;;;;5053559;28;20021;-51
2023/01/29 05:58:25;;;;;;;12.20;7.82;;;18.30;99.90;;;;;;5053286;28;20028;-52
2023/01/29 06:00:50;;;;;;;11.43;7.95;;;18.30;99.90;;;;;;5053203;28;20110;-52
2023/01/29 06:03:16;;;;;;;10.60;7.68;;;18.20;99.90;;;;;;5053325;28;20076;-52
2023/01/29 06:05:42;;;;;;;12.55;7.88;;;18.20;99.90;;;;;;5035533;28;20095;-52
2023/01/29 06:08:07;;;;;;;11.18;8.30;;;18.20;99.90;;;;;;5053161;28;20365;-52
2023/01/29 06:10:33;;;;;;;11.75;8.25;;;18.20;99.90;;;;;;5053020;28;20441;-52
2023/01/29 06:12:59;;;;;;;10.40;7.45;;;18.20;99.90;;;;;;5053145;28;20051;-52
2023/01/29 06:15:25;;;;;;;11.23;7.68;;;18.20;99.90;;;;;;5052914;28;20476;-52
2023/01/29 06:17:54;;;;;;;12.63;7.97;;;18.20;99.90;;;;;;5053099;28;20112;-52
2023/01/29 06:20:20;;;;;;;12.02;7.95;;;18.10;99.90;;;;;;5052914;28;20081;-52
2023/01/29 06:22:46;;;;;;;10.27;7.00;;;18.10;99.90;;;;;;5052946;28;20017;-52
2023/01/29 06:25:12;;;;;;;10.82;6.97;;;18.10;99.90;;;;;;5052000;28;20017;-52
2023/01/29 06:27:38;;;;;;;9.60;6.40;;;18.20;99.90;;;;;;5051831;28;20481;-52
2023/01/29 06:30:05;;;;;;;10.35;6.55;;;18.10;99.90;;;;;;5051573;28;20033;-52
2023/01/29 06:32:31;;;;;;;9.27;6.47;;;18.10;99.90;;;;;;5052711;28;20020;-52
2023/01/29 06:34:56;;;;;;;8.95;5.97;;;18.10;99.90;;;;;;5052673;28;20024;-52
2023/01/29 06:37:22;;;;;;;9.98;6.68;;;18.20;99.90;;;;;;5052888;28;20102;-52
2023/01/29 06:39:48;;;;;;;11.43;7.32;;;18.10;99.90;;;;;;5052667;28;20025;-52
2023/01/29 06:42:14;;;;;;;9.32;6.25;;;18.10;99.90;;;;;;5052604;28;20024;-52
2023/01/29 06:44:39;;;;;;;10.88;6.95;;;18.10;99.90;;;;;;5052695;28;20025;-52
2023/01/29 06:47:05;;;;;;;9.07;6.50;;;18.10;99.90;;;;;;5052461;28;20033;-53
2023/01/29 06:49:31;;;;;;;10.05;6.78;;;18.10;99.90;;;;;;5051064;28;20021;-52
2023/01/29 06:51:57;;;;;;;9.32;6.30;;;18.10;99.90;;;;;;5052495;28;20104;-52
2023/01/29 06:54:23;;;;;;;8.85;6.18;;;18.10;99.90;;;;;;5052405;28;20025;-52
2023/01/29 06:56:48;;;;;;;10.80;6.57;;;18.10;99.90;;;;;;5052382;28;20029;-52
2023/01/29 06:59:14;;;;;;;10.05;6.18;;;18.00;99.90;;;;;;5052402;28;20029;-52
2023/01/29 07:01:42;;;;;;;10.25;6.10;;;18.10;99.90;;;;;;5052477;28;20041;-52
2023/01/29 07:04:09;;;;;;;8.02;5.78;;;18.00;99.90;;;;;;5052308;28;20090;-52
2023/01/29 07:06:35;;;;;;;8.73;6.13;;;18.00;99.90;;;;;;5052154;28;20384;-52
2023/01/29 07:09:02;;;;;;;7.80;5.78;;;18.00;99.90;;;;;;5052213;28;20025;-52
2023/01/29 07:11:28;;;;;;;7.95;5.60;;;18.00;99.90;;;;;;5051141;28;20020;-52
2023/01/29 07:13:54;;;;;;;7.68;5.43;;;18.00;99.90;;;;;;5052171;28;20503;-52
2023/01/29 07:16:20;;;;;;;8.70;6.18;;;18.00;99.90;;;;;;5052207;28;20064;-52
2023/01/29 07:18:45;;;;;;;6.93;5.57;;;18.00;99.90;;;;;;5052148;28;20028;-53
2023/01/29 07:21:11;;;;;;;8.75;6.22;;;18.00;99.90;;;;;;5052376;28;20380;-52
2023/01/29 07:23:37;;;;;;;8.65;5.55;;;18.00;99.90;;;;;;5052168;28;20040;-52
2023/01/29 07:26:04;;;;;;;9.02;6.28;;;18.00;99.90;;;;;;5050908;28;20078;-51
2023/01/29 07:28:30;;;;;;;8.18;5.65;;;18.00;99.90;;;;;;5056173;28;20040;-51
2023/01/29 07:30:59;;;;;;;6.80;5.03;;;18.00;99.90;;;;;;5056243;28;20037;-51
2023/01/29 07:33:25;;;;;;;11.50;6.55;;;18.00;99.90;;;;;;5056136;28;20029;-51
2023/01/29 07:35:51;;;;;;;9.60;6.72;;;18.00;99.90;;;;;;5056152;28;20100;-51
2023/01/29 07:38:17;;;;;;;8.05;5.72;;;18.00;99.90;;;;;;5056210;28;20503;-52
2023/01/29 07:40:43;;;;;;;8.95;5.78;;;18.00;99.90;;;;;;5056217;28;20389;-51
2023/01/29 07:43:10;;;;;;;7.97;5.47;;;18.00;99.90;;;;;;5055991;28;20044;-51
2023/01/29 07:45:37;;;;;;;8.02;5.43;;;17.90;99.90;;;;;;5054579;28;20035;-51
2023/01/29 07:48:04;;;;;;;10.25;5.47;;;18.00;99.90;;;;;;5054591;28;20028;-51
2023/01/29 07:50:31;;;;;;;10.82;6.30;;;17.90;99.90;;;;;;5056006;28;20380;-51
2023/01/29 07:52:57;;;;;;;8.40;5.50;;;17.90;99.90;;;;;;5054835;28;20419;-52
2023/01/29 07:55:24;;;;;;;6.50;4.88;;;18.00;99.90;;;;;;5055771;28;20031;-53
2023/01/29 07:57:56;;;;;;;8.05;5.57;;;18.00;99.90;;;;;;5055735;28;20394;-53
2023/01/29 08:00:22;;;;;;;8.27;5.53;;;18.00;99.90;;;;;;5055427;28;20052;-52
2023/01/29 08:02:48;;;;;;;8.52;5.63;;;18.00;99.90;;;;;;5055718;28;20020;-52
2023/01/29 08:05:13;;;;;;;8.85;5.40;;;18.00;99.90;;;;;;5055948;28;20160;-52
2023/01/29 08:07:39;;;;;;;8.35;5.78;;;18.00;99.90;;;;;;5055539;28;20428;-52
2023/01/29 08:10:05;;;;;;;7.63;5.10;;;18.00;99.90;;;;;;5055365;28;20025;-52
2023/01/29 08:12:31;;;;;;;10.15;5.97;;;18.00;99.90;;;;;;5055457;28;20048;-52
2023/01/29 08:14:57;;;;;;;8.07;5.85;;;18.00;99.90;;;;;;5055279;28;20075;-55
2023/01/29 08:17:22;;;;;;;8.80;5.15;;;18.00;99.90;;;;;;5054091;28;20082;-52
2023/01/29 08:19:48;;;;;;;10.55;6.05;;;18.10;99.90;;;;;;5055502;28;20025;-51
2023/01/29 08:22:15;;;;;;;7.07;5.55;;;18.10;99.90;;;;;;5055608;28;20020;-52
2023/01/29 08:24:41;;;;;;;7.13;5.07;;;18.10;99.90;;;;;;5055076;28;20087;-53
2023/01/29 08:27:07;;;;;;;8.13;5.40;;;18.10;99.90;;;;;;5055147;28;20087;-52
2023/01/29 08:29:33;;;;;;;8.20;5.28;;;18.10;99.90;;;;;;5055098;28;20476;-52
2023/01/29 08:31:59;;;;;;;7.88;5.38;;;18.20;99.90;;;;;;5053710;28;20475;-53
2023/01/29 08:34:25;;;;;;;8.45;5.90;;;18.20;99.90;;;;;;5055068;28;20082;-52
2023/01/29 08:36:52;;;;;;;10.18;5.95;;;18.20;99.90;;;;;;5054972;28;20477;-52
2023/01/29 08:39:18;;;;;;;8.57;6.00;;;18.20;99.90;;;;;;5055160;28;20033;-53
2023/01/29 08:41:44;;;;;;;8.63;5.57;;;18.20;99.90;;;;;;5053848;28;20093;-53
2023/01/29 08:44:10;;;;;;;7.85;5.63;;;18.20;99.90;;;;;;5054891;28;20074;-53
2023/01/29 08:46:36;;;;;;;7.30;5.25;;;18.30;99.90;;;;;;5054775;28;20029;-52
2023/01/29 08:49:02;;;;;;;7.50;5.13;;;18.30;99.90;;;;;;5054690;28;20063;-52
2023/01/29 08:51:28;;;;;;;7.85;5.45;;;18.30;99.90;;;;;;5053474;28;20029;-52
2023/01/29 08:53:53;;;;;;;7.55;5.45;;;18.40;99.90;;;;;;5054757;28;20104;-53
2023/01/29 08:56:19;;;;;;;7.82;5.38;;;18.30;99.90;;;;;;5054839;28;20384;-52
2023/01/29 08:58:45;;;;;;;8.27;5.60;;;18.40;99.90;;;;;;5054637;28;20104;-52
2023/01/29 09:01:12;;;;;;;8.75;5.43;;;18.40;99.90;;;;;;5054421;28;20048;-52
2023/01/29 09:03:43;;;;;;;6.05;4.53;;;18.40;99.90;;;;;;5054523;28;20021;-52
2023/01/29 09:06:13;;;;;;;9.25;5.75;;;18.40;99.90;;;;;;5054480;28;20036;-52
2023/01/29 09:08:39;;;;;;;6.78;4.93;;;18.40;99.90;;;;;;5053181;28;20029;-52
2023/01/29 09:11:06;;;;;;;7.63;5.35;;;18.50;99.90;;;;;;5054359;28;20025;-52
2023/01/29 09:13:32;;;;;;;9.45;5.85;;;18.50;99.90;;;;;;5054245;28;20025;-52
2023/01/29 09:16:00;;;;;;;6.93;5.13;;;18.50;99.90;;;;;;5036465;28;20018;-52
2023/01/29 09:18:25;;;;;;;7.60;5.70;;;18.60;99.90;;;;;;5052984;28;20120;-52
2023/01/29 09:20:52;;;;;;;9.13;5.60;;;18.50;99.90;;;;;;5054439;28;20053;-52
2023/01/29 09:23:18;;;;;;;6.65;5.03;;;18.60;99.90;;;;;;5054286;28;20567;-51
2023/01/29 09:25:44;;;;;;;8.50;5.80;;;18.60;99.90;;;;;;5052782;28;20108;-52
2023/01/29 09:28:10;;;;;;;8.45;5.70;;;18.60;99.90;;;;;;5053858;28;20041;-53
2023/01/29 09:30:36;;;;;;;8.95;5.43;;;18.60;99.90;;;;;;5053847;28;20103;-52
2023/01/29 09:33:06;;;;;;;8.95;5.93;;;18.70;99.90;;;;;;5053885;28;20027;-52
2023/01/29 09:35:32;;;;;;;8.10;5.72;;;18.70;99.90;;;;;;5053956;28;20021;-52
2023/01/29 09:37:58;;;;;;;6.90;5.32;;;18.70;99.90;;;;;;5053831;28;20029;-52
2023/01/29 09:40:30;;;;;;;6.85;5.30;;;18.70;99.90;;;;;;5036237;28;20024;-52
2023/01/29 09:43:11;;;;;;;8.25;5.65;;;18.80;99.90;;;;;;5053904;28;20060;-53
2023/01/29 09:45:44;;;;;;;8.35;5.43;;;18.80;99.90;;;;;;5052442;28;20121;-52
2023/01/29 09:48:11;;;;;;;7.38;5.25;;;18.80;99.90;;;;;;5053341;28;20045;-52
2023/01/29 09:50:40;;;;;;;7.10;5.53;;;18.80;99.90;;;;;;5053113;28;20103;-53
2023/01/29 09:53:07;;;;;;;10.73;5.88;;;18.90;99.90;;;;;;5053603;28;20029;-51
2023/01/29 09:55:44;;;;;;;8.35;5.53;;;18.90;99.90;;;;;;5053414;28;20497;-52
2023/01/29 09:58:18;;;;;;;8.02;5.47;;;18.90;99.90;;;;;;5053557;28;20028;-52
2023/01/29 10:00:52;;;;;;;7.22;5.60;;;18.90;99.90;;;;;;5052118;28;20040;-52
2023/01/29 10:03:36;;;;;;;8.05;5.07;;;19.00;99.90;;;;;;5053456;28;20385;-52
2023/01/29 10:06:44;;;;;;;7.95;5.43;;;19.00;99.90;;;;;;5053246;28;20487;-53
2023/01/29 10:09:34;;;;;;;8.57;5.10;;;19.10;99.90;;;;;;5047265;28;20033;-52
2023/01/29 10:12:31;;;;;;;9.05;5.55;;;19.10;99.90;;;;;;5051971;28;20481;-52
2023/01/29 10:15:18;;;;;;;6.60;4.82;;;19.10;99.90;;;;;;5051951;28;20025;-52
2023/01/29 10:18:19;;;;;;;9.05;5.78;;;19.20;99.90;;;;;;5051766;28;20032;-52
2023/01/29 10:20:52;;;;;;;8.90;5.30;;;19.20;99.90;;;;;;5037774;28;20181;-52
2023/01/29 10:23:35;;;;;;;7.25;5.57;;;19.20;99.90;;;;;;5052972;28;20392;-52
2023/01/29 10:26:01;;;;;;;6.95;4.60;;;19.30;99.90;;;;;;5051715;28;20045;-52
2023/01/29 10:28:42;;;;;;;7.50;5.15;;;19.40;99.90;;;;;;5052899;28;20037;-52
2023/01/29 10:31:31;;;;;;;7.40;5.30;;;19.40;99.90;;;;;;5052957;28;20131;-52
2023/01/29 10:34:02;;;;;;;7.38;5.18;;;19.50;99.90;;;;;;5052800;28;20060;-52
2023/01/29 10:36:41;;;;;;;9.52;5.70;;;19.50;99.90;;;;;;5052791;28;20062;-52
2023/01/29 10:39:20;;;;;;;8.18;5.65;;;19.60;99.90;;;;;;5052809;28;20482;-53
2023/01/29 10:41:55;;;;;;;9.45;5.50;;;19.60;99.90;;;;;;5052761;28;20082;-52
2023/01/29 10:44:59;;;;;;;9.70;6.18;;;19.70;99.90;;;;;;5052778;28;20024;-52
2023/01/29 10:47:44;;;;;;;8.75;5.72;;;19.70;99.90;;;;;;5050843;28;20117;-52
2023/01/29 10:50:15;;;;;;;10.32;6.40;;;19.80;99.90;;;;;;5052494;28;20025;-52
2023/01/29 10:53:15;;;;;;;10.95;6.25;;;19.80;99.90;;;;;;5052544;28;20056;-53
2023/01/29 10:55:59;;;;;;;11.70;6.38;;;19.90;99.90;;;;;;5052448;28;20029;-51
2023/01/29 10:58:43;;;;;;;9.15;5.85;;;19.90;99.90;;;;;;5052470;28;20074;-51
2023/01/29 11:01:10;;;;;;;14.77;6.82;;;19.90;99.90;;;;;;5051264;28;20053;-52
2023/01/29 11:03:36;;;;;;;10.30;6.68;;;20.00;99.90;;;;;;5052222;28;20049;-52
2023/01/29 11:06:12;;;;;;;11.57;6.55;;;20.10;99.90;;;;;;5052318;28;20044;-52
2023/01/29 11:08:51;;;;;;;10.57;6.83;;;20.10;99.90;;;;;;5052208;28;20094;-51
2023/01/29 11:11:21;;;;;;;11.05;6.85;;;20.10;99.90;;;;;;5051061;28;20448;-51
2023/01/29 11:13:53;;;;;;;12.10;6.68;;;20.20;99.90;;;;;;5052233;28;20029;-52
2023/01/29 11:16:19;;;;;;;9.88;6.32;;;20.20;99.90;;;;;;5052097;28;20024;-51
2023/01/29 11:18:58;;;;;;;11.82;6.43;;;20.20;99.90;;;;;;5050910;28;20025;-52
2023/01/29 11:21:26;;;;;;;9.77;6.53;;;20.30;99.90;;;;;;5052417;28;20048;-51
2023/01/29 11:24:12;;;;;;;11.20;7.05;;;20.30;99.90;;;;;;5052068;28;20017;-52
2023/01/29 11:26:41;;;;;;;9.43;6.55;;;20.40;99.90;;;;;;5051510;28;20037;-51
2023/01/29 11:29:26;;;;;;;9.15;6.70;;;20.30;99.90;;;;;;5052112;28;20091;-52
2023/01/29 11:31:52;;;;;;;13.82;6.72;;;20.40;99.90;;;;;;5051814;28;20025;-52
2023/01/29 11:34:24;;;;;;;12.25;7.40;;;20.40;99.90;;;;;;5052400;28;20151;-51
2023/01/29 11:37:10;;;;;;;26.98;7.90;;;20.40;99.90;;;;;;5052012;28;20017;-52
2023/01/29 11:39:43;;;;;;;16.37;7.70;;;20.50;99.90;;;;;;5047206;28;20374;-51
2023/01/29 11:42:21;;;;;;;11.20;7.28;;;20.50;99.90;;;;;;5051969;28;20412;-52
2023/01/29 11:44:47;;;;;;;10.95;7.28;;;20.60;99.90;;;;;;5051892;28;20021;-54
2023/01/29 11:47:13;;;;;;;44.53;8.70;;;20.60;99.90;;;;;;5051743;28;20025;-51
2023/01/29 11:49:53;;;;;;;13.80;6.53;;;20.60;99.90;;;;;;5051709;28;20504;-51
2023/01/29 11:52:22;;;;;;;12.45;6.78;;;20.60;99.90;;;;;;5051877;28;20131;-51
2023/01/29 11:54:57;;;;;;;12.50;6.65;;;20.70;99.90;;;;;;5051769;28;20082;-51
2023/01/29 11:57:36;;;;;;;13.52;7.00;;;20.70;99.90;;;;;;5061287;28;20023;-51
2023/01/29 12:00:18;;;;;;;16.83;7.13;;;20.70;99.90;;;;;;5071576;28;20591;-51
2023/01/29 12:02:58;;;;;;;20.90;7.55;;;20.80;99.90;;;;;;5071807;28;20055;-51
2023/01/29 12:05:25;;;;;;;9.77;6.20;;;20.80;99.90;;;;;;5071739;28;20036;-52
2023/01/29 12:07:55;;;;;;;14.98;6.55;;;20.80;99.90;;;;;;5070448;28;20081;-52
2023/01/29 12:10:39;;;;;;;10.35;5.75;;;20.80;99.90;;;;;;5071605;28;20073;-51
2023/01/29 12:13:25;;;;;;;13.48;6.60;;;20.90;99.90;;;;;;5073262;28;20425;-51
2023/01/29 12:16:24;;;;;;;14.50;6.43;;;20.90;99.90;;;;;;5064627;28;20033;-51
2023/01/29 12:19:39;;;;;;;11.65;6.28;;;20.90;99.90;;;;;;5063841;28;20844;-51
2023/01/29 12:22:23;;;;;;;11.32;6.35;;;21.00;99.90;;;;;;5026217;28;20041;-51
2023/01/29 12:25:02;;;;;;;10.45;5.93;;;21.00;99.90;;;;;;5044473;28;20049;-51
2023/01/29 12:27:42;;;;;;;14.70;6.75;;;21.10;99.90;;;;;;5047667;28;20507;-51
2023/01/29 12:30:14;;;;;;;15.75;6.78;;;21.20;99.90;;;;;;5055478;28;20056;-52
2023/01/29 12:32:49;;;;;;;14.25;5.85;;;21.10;99.90;;;;;;5053622;28;20384;-51
2023/01/29 12:35:36;;;;;;;13.15;6.05;;;21.20;99.90;;;;;;5054331;28;20048;-51
2023/01/29 12:38:22;;;;;;;12.60;6.22;;;21.20;99.90;;;;;;5042785;28;20071;-50
2023/01/29 12:41:12;;;;;;;12.65;5.90;;;21.30;99.90;;;;;;5054573;28;20021;-49
2023/01/29 12:43:55;;;;;;;12.02;5.70;;;21.30;99.90;;;;;;5054180;28;20431;-50
2023/01/29 12:46:25;;;;;;;12.75;5.55;;;21.30;99.90;;;;;;5054644;28;20606;-50
2023/01/29 12:48:54;;;;;;;9.15;5.68;;;21.40;99.90;;;;;;5053000;28;20025;-51
2023/01/29 12:51:36;;;;;;;14.20;5.63;;;21.40;99.90;;;;;;5054286;28;20021;-50
2023/01/29 12:54:07;;;;;;;10.05;5.78;;;21.50;99.90;;;;;;5042308;28;20104;-51
2023/01/29 12:56:41;;;;;;;8.23;5.25;;;21.50;99.90;;;;;;5044768;28;20017;-50
2023/01/29 12:59:23;;;;;;;10.55;5.57;;;21.50;99.90;;;;;;5033539;28;20049;-50
2023/01/29 13:01:53;;;;;;;9.32;5.13;;;21.50;99.90;;;;;;5034481;28;20090;-50
2023/01/29 13:04:34;;;;;;;7.78;4.43;;;21.60;99.90;;;;;;5045407;28;20525;-50
2023/01/29 13:07:23;;;;;;;7.10;4.72;;;21.50;99.90;;;;;;5043894;28;20030;-50
2023/01/29 13:09:53;;;;;;;9.05;4.90;;;21.50;99.90;;;;;;5035690;28;20037;-51
2023/01/29 13:12:20;;;;;;;7.55;5.07;;;21.60;99.90;;;;;;5033587;28;20033;-50
2023/01/29 13:15:25;;;;;;;6.80;4.30;;;21.60;99.90;;;;;;5041311;28;20025;-51
2023/01/29 13:18:01;;;;;;;7.88;4.47;;;21.50;99.90;;;;;;5011528;28;20037;-51
2023/01/29 13:20:32;;;;;;;6.47;4.47;;;21.60;99.90;;;;;;5031939;28;20092;-51
2023/01/29 13:23:11;;;;;;;8.60;4.55;;;21.60;99.90;;;;;;5033797;28;20025;-51
2023/01/29 13:25:37;;;;;;;7.88;4.57;;;21.60;99.90;;;;;;5032574;28;20032;-50
2023/01/29 13:28:03;;;;;;;6.60;4.50;;;21.60;99.90;;;;;;5044933;28;20033;-49
2023/01/29 13:30:35;;;;;;;12.00;4.65;;;21.60;99.90;;;;;;5052586;28;20048;-52